Naikai2 — JD2433 — position and weather

sailwx.info

Track history (hours):
 
Tides and Currents Weather Stations Pressure Air Temp Water Temp Dewpoint Dewpoint Depression Visibility Wind Speed Wind Dir Waves Ship Positions

Naikai2

Last reported at 2014-Oct-30 19:13 UTC. Time now 2014-Oct-31 07:09 UTC.
Position N 34°39' E 135°10'.

Length 28 m; draft 2.2 m.

Type: Other ship. MMSI: 431000283.

Date/timePositionNaut miles runAvg speedWind from/ knotsBaromVisibWave heightAir tempDewpointWater temp
2014-Oct-30 19:13N 34°39' E 135°10'913.5
2014-Oct-30 18:33N 34°38' E 134°59'6 5.6
2014-Oct-30 17:33N 34°35' E 135°05'6 5.5
2014-Oct-30 16:33N 34°39' E 135°10'0 0.0
2014-Oct-30 05:13N 34°39' E 135°10'1 1.9
2014-Oct-30 04:33N 34°40' E 135°11'1110.8
2014-Oct-30 03:33N 34°35' E 135°22'1 1.4
2014-Oct-30 02:33N 34°33' E 135°23'6 6.1
2014-Oct-30 01:33N 34°34' E 135°15'7 1.5
2014-Oct-29 21:14N 34°39' E 135°10'811.5
2014-Oct-29 20:32N 34°38' E 135°00'6 6.3
2014-Oct-29 19:33N 34°35' E 135°06'5 5.4
2014-Oct-29 18:33N 34°39' E 135°10'1 0.0
2014-Oct-28 02:33N 34°38' E 135°10'1111.2
2014-Oct-28 01:32N 34°37' E 134°56'8 7.7
2014-Oct-28 00:34N 34°36' E 135°05'5 5.4
2014-Oct-27 23:33N 34°39' E 135°10'0 0.0
2014-Oct-27 22:33N 34°39' E 135°10'1 0.0
2014-Oct-27 07:27N 34°38' E 135°10'1213.5
2014-Oct-27 06:33N 34°27' E 135°05'1 0.6
2014-Oct-27 04:32N 34°26' E 135°05'1313.3
2014-Oct-27 03:33N 34°33' E 135°19'5 5.3
2014-Oct-27 02:34N 34°33' E 135°25'1211.6
2014-Oct-27 01:33N 34°37' E 135°12'2 0.1
2014-Oct-26 03:29N 34°39' E 135°10'1314.0
2014-Oct-26 02:33N 34°33' E 135°25'4 3.7
2014-Oct-26 01:33N 34°33' E 135°20'7 6.5
2014-Oct-26 00:33N 34°31' E 135°13'1712.8
2014-Oct-25 23:15N 34°18' E 134°59'5 7.4
2014-Oct-25 22:32N 34°13' E 134°58'1312.5
2014-Oct-25 21:31N 34°26' E 134°60'1414.0
2014-Oct-25 20:33N 34°37' E 135°09'2 0.1
2014-Oct-24 23:06N 34°39' E 135°10'1 2.6
2014-Oct-24 22:33N 34°40' E 135°11'0 0.0
2014-Oct-24 21:33N 34°40' E 135°11'5 5.1
2014-Oct-24 20:33N 34°37' E 135°06'2 2.4
2014-Oct-24 19:33N 34°36' E 135°03'6 6.2
2014-Oct-24 18:34N 34°38' E 135°10'1 0.6
2014-Oct-24 17:33N 34°39' E 135°10'1 0.1
2014-Oct-24 06:33N 34°38' E 135°10'1110.8
2014-Oct-24 05:33N 34°36' E 134°57'4 3.9
2014-Oct-24 04:33N 34°36' E 135°02'3 3.3
2014-Oct-24 03:32N 34°36' E 134°57'1010.6
2014-Oct-24 02:33N 34°38' E 135°10'1 0.6
2014-Oct-24 01:33N 34°39' E 135°10'0 0.0
2014-Oct-24 00:34N 34°39' E 135°10'0 0.0
2014-Oct-23 23:34N 34°39' E 135°10'  
2014-Oct-21 19:34N 34°38' E 135°10'1110.3
2014-Oct-21 18:32N 34°37' E 134°57'9 8.9
2014-Oct-21 17:33N 34°35' E 135°07'4 4.4
2014-Oct-21 16:32N 34°39' E 135°10'7 1.1
2014-Oct-21 10:33N 34°32' E 135°08'1715.2
2014-Oct-21 09:25N 34°16' E 134°59'9 9.6
2014-Oct-21 08:31N 34°24' E 135°02'1212.8
2014-Oct-21 07:34N 34°32' E 135°14'9 8.3
2014-Oct-21 06:32N 34°33' E 135°24'2 2.2
2014-Oct-21 05:33N 34°34' E 135°22'1110.5
2014-Oct-21 04:33N 34°40' E 135°11'  
Track history (hours):
 
Tides and Currents Weather Stations Pressure Air Temp Water Temp Dewpoint Dewpoint Depression Visibility Wind Speed Wind Dir Waves Ship Positions

Naikai2

Last reported at 2014-Oct-30 19:13 UTC. Time now 2014-Oct-31 07:09 UTC.
Position N 34°39' E 135°10'.

Length 28 m; draft 2.2 m.

Type: Other ship. MMSI: 431000283.

Date/timePositionNaut miles runAvg speedWind from/ knotsBaromVisibWave heightAir tempDewpointWater temp
2014-Oct-30 19:13N 34°39' E 135°10'913.5
2014-Oct-30 18:33N 34°38' E 134°59'6 5.6
2014-Oct-30 17:33N 34°35' E 135°05'6 5.5
2014-Oct-30 16:33N 34°39' E 135°10'0 0.0
2014-Oct-30 05:13N 34°39' E 135°10'1 1.9
2014-Oct-30 04:33N 34°40' E 135°11'1110.8
2014-Oct-30 03:33N 34°35' E 135°22'1 1.4
2014-Oct-30 02:33N 34°33' E 135°23'6 6.1
2014-Oct-30 01:33N 34°34' E 135°15'7 1.5
2014-Oct-29 21:14N 34°39' E 135°10'811.5
2014-Oct-29 20:32N 34°38' E 135°00'6 6.3
2014-Oct-29 19:33N 34°35' E 135°06'5 5.4
2014-Oct-29 18:33N 34°39' E 135°10'1 0.0
2014-Oct-28 02:33N 34°38' E 135°10'1111.2
2014-Oct-28 01:32N 34°37' E 134°56'8 7.7
2014-Oct-28 00:34N 34°36' E 135°05'5 5.4
2014-Oct-27 23:33N 34°39' E 135°10'0 0.0
2014-Oct-27 22:33N 34°39' E 135°10'1 0.0
2014-Oct-27 07:27N 34°38' E 135°10'1213.5
2014-Oct-27 06:33N 34°27' E 135°05'1 0.6
2014-Oct-27 04:32N 34°26' E 135°05'1313.3
2014-Oct-27 03:33N 34°33' E 135°19'5 5.3
2014-Oct-27 02:34N 34°33' E 135°25'1211.6
2014-Oct-27 01:33N 34°37' E 135°12'2 0.1
2014-Oct-26 03:29N 34°39' E 135°10'1314.0
2014-Oct-26 02:33N 34°33' E 135°25'4 3.7
2014-Oct-26 01:33N 34°33' E 135°20'7 6.5
2014-Oct-26 00:33N 34°31' E 135°13'1712.8
2014-Oct-25 23:15N 34°18' E 134°59'5 7.4
2014-Oct-25 22:32N 34°13' E 134°58'1312.5
2014-Oct-25 21:31N 34°26' E 134°60'1414.0
2014-Oct-25 20:33N 34°37' E 135°09'2 0.1
2014-Oct-24 23:06N 34°39' E 135°10'1 2.6
2014-Oct-24 22:33N 34°40' E 135°11'0 0.0
2014-Oct-24 21:33N 34°40' E 135°11'5 5.1
2014-Oct-24 20:33N 34°37' E 135°06'2 2.4
2014-Oct-24 19:33N 34°36' E 135°03'6 6.2
2014-Oct-24 18:34N 34°38' E 135°10'1 0.6
2014-Oct-24 17:33N 34°39' E 135°10'1 0.1
2014-Oct-24 06:33N 34°38' E 135°10'1110.8
2014-Oct-24 05:33N 34°36' E 134°57'4 3.9
2014-Oct-24 04:33N 34°36' E 135°02'3 3.3
2014-Oct-24 03:32N 34°36' E 134°57'1010.6
2014-Oct-24 02:33N 34°38' E 135°10'1 0.6
2014-Oct-24 01:33N 34°39' E 135°10'0 0.0
2014-Oct-24 00:34N 34°39' E 135°10'0 0.0
2014-Oct-23 23:34N 34°39' E 135°10'  
2014-Oct-21 19:34N 34°38' E 135°10'1110.3
2014-Oct-21 18:32N 34°37' E 134°57'9 8.9
2014-Oct-21 17:33N 34°35' E 135°07'4 4.4
2014-Oct-21 16:32N 34°39' E 135°10'7 1.1
2014-Oct-21 10:33N 34°32' E 135°08'1715.2
2014-Oct-21 09:25N 34°16' E 134°59'9 9.6
2014-Oct-21 08:31N 34°24' E 135°02'1212.8
2014-Oct-21 07:34N 34°32' E 135°14'9 8.3
2014-Oct-21 06:32N 34°33' E 135°24'2 2.2
2014-Oct-21 05:33N 34°34' E 135°22'1110.5
2014-Oct-21 04:33N 34°40' E 135°11'  

Dump ship's entire track history